Time;durP1;ratioP1;P1;durP2;ratioP2;P2;SDS_P1;SDS_P2;PMS_P1;PMS_P2;Temp;Humidity;BMP_temperature;BMP_pressure;BME280_temperature;BME280_humidity;BME280_pressure;Samples;Min_cycle;Max_cycle;Signal;HPM_P1;HPM_P2
2022/12/07 00:01:45;;;;;;;28.50;10.27;;;9.90;95.80;;;;;;6337739;22;20596;-80
2022/12/07 00:04:16;;;;;;;25.23;10.13;;;9.90;95.80;;;;;;6337846;22;20605;-80
2022/12/07 00:06:46;;;;;;;25.73;9.73;;;9.90;96.20;;;;;;6256366;22;20251;-80
2022/12/07 00:09:17;;;;;;;30.83;10.73;;;9.80;95.80;;;;;;6332844;22;20533;-80
2022/12/07 00:11:49;;;;;;;23.73;9.17;;;9.80;95.70;;;;;;6332361;22;20165;-80
2022/12/07 00:14:18;;;;;;;23.43;9.83;;;9.80;95.80;;;;;;6332504;22;20214;-81
2022/12/07 00:16:50;;;;;;;24.60;10.20;;;9.80;95.80;;;;;;6332483;22;20226;-81
2022/12/07 00:19:19;;;;;;;27.13;10.67;;;9.80;96.20;;;;;;6332447;22;20163;-80
2022/12/07 00:21:48;;;;;;;25.73;9.73;;;9.80;95.90;;;;;;6336138;22;20184;-79
2022/12/07 00:24:19;;;;;;;36.33;12.37;;;9.80;95.90;;;;;;6333661;22;20637;-80
2022/12/07 00:26:47;;;;;;;27.37;11.73;;;9.80;95.90;;;;;;6336402;22;20164;-80
2022/12/07 00:29:19;;;;;;;34.23;11.43;;;9.80;95.90;;;;;;6329002;22;20152;-81
2022/12/07 00:31:50;;;;;;;27.93;10.40;;;9.70;96.20;;;;;;6333768;22;20693;-82
2022/12/07 00:34:22;;;;;;;28.30;11.80;;;9.70;95.80;;;;;;6329269;22;20175;-80
2022/12/07 00:36:51;;;;;;;29.23;9.97;;;9.70;95.80;;;;;;6334370;22;20192;-80
2022/12/07 00:39:29;;;;;;;22.57;9.70;;;9.70;95.80;;;;;;6333885;22;20206;-80
2022/12/07 00:41:57;;;;;;;28.20;10.33;;;9.70;95.80;;;;;;6336850;22;20626;-80
2022/12/07 00:44:25;;;;;;;24.80;10.90;;;9.70;95.90;;;;;;6335597;22;20176;-80
2022/12/07 00:46:55;;;;;;;30.47;11.53;;;9.70;95.90;;;;;;6337098;22;20168;-80
2022/12/07 00:49:23;;;;;;;29.03;10.47;;;9.60;95.90;;;;;;6337133;22;20234;-80
2022/12/07 00:51:59;;;;;;;28.97;11.53;;;9.60;95.90;;;;;;6335463;22;20149;-80
2022/12/07 00:54:28;;;;;;;29.53;10.63;;;9.60;96.00;;;;;;6336355;22;20213;-81
2022/12/07 00:56:56;;;;;;;29.07;10.97;;;9.60;96.00;;;;;;6336356;22;20200;-80
2022/12/07 00:59:24;;;;;;;26.60;9.50;;;9.60;96.10;;;;;;6333970;22;20753;-80
2022/12/07 01:01:52;;;;;;;34.30;12.27;;;9.60;96.10;;;;;;6332128;22;20176;-81
2022/12/07 01:04:22;;;;;;;31.50;12.53;;;9.50;96.10;;;;;;6335506;22;20256;-80
2022/12/07 01:06:54;;;;;;;33.70;12.97;;;9.50;96.20;;;;;;6335993;22;20172;-80
2022/12/07 01:09:24;;;;;;;32.37;11.77;;;9.50;96.20;;;;;;6304130;22;20519;-81
2022/12/07 01:11:52;;;;;;;34.63;12.57;;;9.50;96.20;;;;;;6304881;22;20173;-80
2022/12/07 01:14:23;;;;;;;37.83;12.00;;;9.50;96.30;;;;;;6298968;22;20184;-79
2022/12/07 01:16:52;;;;;;;31.67;11.67;;;9.50;96.30;;;;;;6305198;22;20154;-80
2022/12/07 01:19:23;;;;;;;28.67;11.50;;;9.60;96.30;;;;;;6299737;22;20181;-79
2022/12/07 01:21:56;;;;;;;32.63;12.33;;;9.50;96.30;;;;;;6305293;22;20169;-80
2022/12/07 01:24:24;;;;;;;32.67;12.73;;;9.50;96.30;;;;;;6301817;22;20220;-80
2022/12/07 01:26:53;;;;;;;34.33;11.47;;;9.50;96.30;;;;;;6307090;22;20169;-81
2022/12/07 01:29:21;;;;;;;29.97;10.23;;;9.50;96.30;;;;;;6303792;22;20204;-80
2022/12/07 01:31:50;;;;;;;30.87;11.57;;;9.50;96.40;;;;;;6303401;22;20169;-80
2022/12/07 01:34:18;;;;;;;30.53;12.00;;;9.50;96.40;;;;;;6301676;22;20476;-80
2022/12/07 01:36:48;;;;;;;31.10;11.73;;;9.50;96.40;;;;;;6305255;22;20231;-79
2022/12/07 01:39:19;;;;;;;30.87;12.73;;;9.50;96.40;;;;;;6304492;22;20198;-80
2022/12/07 01:41:47;;;;;;;29.73;12.23;;;9.50;96.40;;;;;;6306329;22;20235;-78
2022/12/07 01:44:19;;;;;;;29.87;12.40;;;9.50;96.40;;;;;;6300829;22;20173;-81
2022/12/07 01:46:49;;;;;;;30.53;12.33;;;9.40;96.40;;;;;;6303747;22;20193;-79
2022/12/07 01:49:22;;;;;;;35.70;13.40;;;9.40;96.40;;;;;;6225849;22;20606;-78
2022/12/07 01:52:01;;;;;;;31.17;13.17;;;9.40;96.40;;;;;;6301364;22;20215;-79
2022/12/07 01:54:29;;;;;;;35.00;12.13;;;9.40;96.40;;;;;;6295950;22;20165;-79
2022/12/07 01:57:02;;;;;;;30.47;12.60;;;9.40;96.50;;;;;;6304082;22;20169;-79
2022/12/07 01:59:30;;;;;;;32.20;11.07;;;9.40;96.50;;;;;;6299864;22;20246;-79
2022/12/07 02:01:59;;;;;;;29.50;11.83;;;9.40;96.50;;;;;;6301939;22;20199;-78
2022/12/07 02:04:28;;;;;;;27.47;12.40;;;9.40;96.50;;;;;;6300009;22;20169;-78
2022/12/07 02:07:01;;;;;;;28.83;11.23;;;9.40;96.50;;;;;;6224138;22;20169;-79
2022/12/07 02:09:30;;;;;;;34.47;12.70;;;9.40;96.50;;;;;;6303620;22;20195;-79
2022/12/07 02:11:58;;;;;;;31.70;11.73;;;9.40;96.50;;;;;;6307686;22;20203;-78
2022/12/07 02:14:27;;;;;;;30.57;12.00;;;9.40;96.50;;;;;;6303362;22;20482;-78
2022/12/07 02:17:08;;;;;;;28.33;12.37;;;9.40;96.50;;;;;;6305116;22;20621;-79
2022/12/07 02:20:15;;;;;;;28.03;11.40;;;9.30;96.50;;;;;;6303979;22;20173;-79
2022/12/07 02:23:17;;;;;;;33.93;12.50;;;9.30;96.50;;;;;;6307699;22;20161;-79
2022/12/07 02:26:04;;;;;;;31.70;12.40;;;9.30;96.50;;;;;;6292787;22;20169;-79
2022/12/07 02:28:37;;;;;;;30.30;12.23;;;9.30;96.50;;;;;;6301279;22;20169;-81
2022/12/07 02:31:15;;;;;;;32.22;14.68;;;9.30;96.60;;;;;;6301463;22;20432;-78
2022/12/07 02:33:51;;;;;;;32.00;12.63;;;9.30;96.70;;;;;;6299328;22;20157;-79
2022/12/07 02:36:26;;;;;;;31.20;13.10;;;9.30;96.80;;;;;;6302121;22;20161;-80
2022/12/07 02:39:00;;;;;;;29.30;12.20;;;9.30;96.70;;;;;;6302706;22;20175;-80
2022/12/07 02:41:34;;;;;;;30.40;12.17;;;9.30;96.70;;;;;;6303811;22;20161;-81
2022/12/07 02:44:07;;;;;;;29.30;13.33;;;9.30;96.70;;;;;;6303714;22;20161;-81
2022/12/07 02:46:42;;;;;;;29.17;11.73;;;9.30;96.70;;;;;;6303897;22;20154;-80
2022/12/07 02:49:11;;;;;;;27.80;12.23;;;9.30;96.70;;;;;;6296532;22;20157;-80
2022/12/07 02:51:42;;;;;;;28.73;11.70;;;9.30;96.70;;;;;;6303266;22;20557;-81
2022/12/07 02:54:13;;;;;;;31.93;12.03;;;9.30;96.70;;;;;;6301387;22;20161;-81
2022/12/07 02:56:51;;;;;;;26.80;10.40;;;9.30;96.80;;;;;;6303238;22;20660;-81
2022/12/07 02:59:32;;;;;;;25.20;10.83;;;9.30;96.80;;;;;;6302158;22;20228;-81
2022/12/07 03:02:14;;;;;;;27.03;11.53;;;9.30;96.80;;;;;;6303205;22;20667;-81
2022/12/07 03:04:51;;;;;;;29.27;11.30;;;9.30;96.80;;;;;;6299900;22;20318;-81
2022/12/07 03:07:28;;;;;;;24.97;10.70;;;9.30;96.80;;;;;;6305481;22;20223;-81
2022/12/07 03:10:12;;;;;;;27.37;10.63;;;9.20;96.80;;;;;;6301386;22;20153;-81
2022/12/07 03:12:48;;;;;;;27.30;11.13;;;9.30;96.80;;;;;;6302474;22;20569;-78
2022/12/07 03:15:23;;;;;;;26.10;10.70;;;9.30;96.80;;;;;;6304370;22;20157;-80
2022/12/07 03:17:54;;;;;;;29.80;12.30;;;9.30;96.80;;;;;;6301251;22;20593;-81
2022/12/07 03:20:34;;;;;;;26.00;11.20;;;9.20;96.80;;;;;;6294970;22;20157;-80
2022/12/07 03:23:05;;;;;;;25.93;10.83;;;9.20;96.80;;;;;;6304406;22;20543;-80
2022/12/07 03:25:36;;;;;;;23.40;10.20;;;9.20;96.80;;;;;;6301373;22;20158;-81
2022/12/07 03:28:08;;;;;;;25.10;10.60;;;9.20;96.80;;;;;;6300501;22;20614;-81
2022/12/07 03:30:43;;;;;;;26.97;10.87;;;9.20;96.80;;;;;;6305271;22;20158;-80
2022/12/07 03:33:22;;;;;;;25.57;10.20;;;9.20;96.80;;;;;;6302986;22;20183;-80
2022/12/07 03:35:57;;;;;;;23.87;9.73;;;9.20;96.80;;;;;;6301804;22;20161;-80
2022/12/07 03:38:37;;;;;;;26.10;10.73;;;9.20;96.80;;;;;;6301954;22;20214;-80
2022/12/07 03:41:18;;;;;;;22.73;9.40;;;9.10;96.80;;;;;;6305490;22;20160;-81
2022/12/07 03:43:46;;;;;;;26.00;10.30;;;9.10;96.80;;;;;;6301557;22;20160;-80
2022/12/07 03:46:20;;;;;;;23.10;10.30;;;9.10;96.90;;;;;;6301479;22;20173;-80
2022/12/07 03:49:02;;;;;;;21.40;10.37;;;9.00;96.90;;;;;;6305082;22;20163;-81
2022/12/07 03:51:37;;;;;;;24.97;10.73;;;9.00;96.90;;;;;;6251450;22;20203;-80
2022/12/07 03:54:12;;;;;;;27.67;10.20;;;9.10;96.90;;;;;;6304312;22;20186;-82
2022/12/07 03:56:42;;;;;;;23.20;8.97;;;9.00;97.00;;;;;;6304451;22;20207;-80
2022/12/07 03:59:11;;;;;;;26.10;12.57;;;9.00;97.00;;;;;;6304207;22;20391;-81
2022/12/07 04:01:42;;;;;;;22.73;9.50;;;9.00;97.30;;;;;;6302372;22;20478;-80
2022/12/07 04:04:12;;;;;;;24.20;10.43;;;9.00;97.30;;;;;;6301602;22;20164;-80
2022/12/07 04:06:40;;;;;;;20.17;8.93;;;9.00;97.20;;;;;;6306176;22;20196;-80
2022/12/07 04:09:08;;;;;;;24.30;9.67;;;8.90;97.20;;;;;;6303503;22;20169;-80
2022/12/07 04:11:36;;;;;;;19.50;9.87;;;8.90;97.20;;;;;;6301705;22;20495;-81
2022/12/07 04:14:20;;;;;;;24.23;9.83;;;8.90;97.20;;;;;;6302576;22;20614;-81
2022/12/07 04:16:50;;;;;;;29.37;10.73;;;8.90;97.20;;;;;;6302964;22;20157;-80
2022/12/07 04:19:22;;;;;;;23.70;9.63;;;8.90;97.30;;;;;;6303285;22;20715;-80
2022/12/07 04:21:51;;;;;;;24.13;9.63;;;8.90;97.30;;;;;;6305398;22;20157;-80
2022/12/07 04:24:27;;;;;;;22.60;9.47;;;8.90;97.30;;;;;;6302485;22;20626;-83
2022/12/07 04:27:09;;;;;;;25.23;9.33;;;8.90;97.30;;;;;;6306849;22;20188;-81
2022/12/07 04:29:39;;;;;;;26.83;10.53;;;8.90;97.30;;;;;;6300450;22;20187;-80
2022/12/07 04:32:07;;;;;;;27.97;9.40;;;8.90;97.70;;;;;;6306013;22;20169;-80
2022/12/07 04:34:37;;;;;;;22.73;9.80;;;8.90;97.30;;;;;;6304418;22;20347;-79
2022/12/07 04:37:06;;;;;;;26.73;10.27;;;8.90;97.70;;;;;;6303417;22;20454;-81
2022/12/07 04:39:34;;;;;;;21.07;9.77;;;8.90;97.30;;;;;;6304545;22;20243;-81
2022/12/07 04:42:03;;;;;;;20.67;8.90;;;8.90;97.30;;;;;;6301382;22;20193;-81
2022/12/07 04:44:57;;;;;;;23.17;10.63;;;9.00;97.30;;;;;;6297834;22;20153;-80
2022/12/07 04:47:30;;;;;;;23.63;10.33;;;9.00;97.30;;;;;;6300517;22;20218;-81
2022/12/07 04:50:00;;;;;;;23.52;10.23;;;9.00;97.30;;;;;;6304287;22;20375;-80
2022/12/07 04:52:31;;;;;;;23.70;9.80;;;9.00;97.40;;;;;;6302845;22;20207;-79
2022/12/07 04:55:00;;;;;;;21.23;8.87;;;9.10;97.40;;;;;;6302053;22;20247;-81
2022/12/07 04:57:40;;;;;;;22.40;8.80;;;9.10;97.30;;;;;;6302357;22;20257;-81
2022/12/07 05:00:18;;;;;;;20.57;9.33;;;9.10;97.30;;;;;;6302221;22;20177;-81
2022/12/07 05:02:46;;;;;;;20.97;9.07;;;9.10;97.20;;;;;;6305245;22;20207;-80
2022/12/07 05:05:36;;;;;;;19.10;9.13;;;9.10;97.10;;;;;;6302237;22;20173;-81
2022/12/07 05:08:07;;;;;;;23.97;10.57;;;9.10;97.10;;;;;;6294044;22;20173;-81
2022/12/07 05:10:35;;;;;;;22.77;9.60;;;9.10;97.10;;;;;;6304506;22;20222;-80
2022/12/07 05:13:03;;;;;;;23.67;8.87;;;9.10;96.90;;;;;;6305509;22;20177;-79
2022/12/07 05:15:32;;;;;;;20.17;9.03;;;9.10;96.90;;;;;;6302136;22;20610;-80
2022/12/07 05:18:03;;;;;;;22.87;9.87;;;9.10;96.90;;;;;;6303976;22;20172;-80
2022/12/07 05:20:35;;;;;;;20.73;9.57;;;9.10;96.80;;;;;;6301617;22;20177;-79
2022/12/07 05:23:09;;;;;;;25.33;10.37;;;9.10;96.80;;;;;;6305180;22;20215;-81
2022/12/07 05:25:38;;;;;;;23.97;10.20;;;9.10;96.80;;;;;;6305286;22;20169;-80
2022/12/07 05:28:06;;;;;;;22.37;8.80;;;9.10;96.80;;;;;;6307283;22;20591;-81
2022/12/07 05:30:34;;;;;;;22.53;10.20;;;9.00;96.90;;;;;;6306875;22;20521;-80
2022/12/07 05:33:03;;;;;;;25.73;10.70;;;9.00;96.80;;;;;;6306379;22;20181;-80
2022/12/07 05:35:32;;;;;;;26.13;10.30;;;9.00;96.90;;;;;;6304717;22;20172;-81
2022/12/07 05:38:02;;;;;;;22.63;10.40;;;9.00;96.90;;;;;;6308695;22;20179;-80
2022/12/07 05:40:31;;;;;;;25.27;10.07;;;8.90;96.90;;;;;;6305146;22;20189;-79
2022/12/07 05:42:58;;;;;;;29.13;10.30;;;8.90;96.90;;;;;;6307663;22;20173;-79
2022/12/07 05:45:32;;;;;;;24.53;10.00;;;8.90;97.00;;;;;;6309483;22;20594;-79
2022/12/07 05:48:00;;;;;;;22.63;9.80;;;8.90;97.10;;;;;;6309044;22;20173;-79
2022/12/07 05:50:28;;;;;;;24.07;9.73;;;8.90;97.10;;;;;;6308583;22;20680;-77
2022/12/07 05:52:57;;;;;;;23.57;10.83;;;8.90;97.10;;;;;;6303188;22;20173;-80
2022/12/07 05:55:27;;;;;;;24.97;10.50;;;8.90;97.20;;;;;;6306452;22;20271;-81
2022/12/07 06:00:40;;;;;;;24.53;10.30;;;8.80;97.30;;;;;;6233196;22;20199;-82
2022/12/07 06:03:08;;;;;;;26.37;10.33;;;8.80;97.30;;;;;;6310262;22;20683;-83
2022/12/07 06:05:36;;;;;;;26.07;10.73;;;8.70;97.30;;;;;;6306353;22;20471;-80
2022/12/07 06:08:05;;;;;;;24.47;10.47;;;8.80;97.40;;;;;;6306082;22;20550;-80
2022/12/07 06:10:35;;;;;;;22.60;9.47;;;8.80;97.40;;;;;;6305838;22;20622;-80
2022/12/07 06:13:02;;;;;;;21.57;9.40;;;8.80;97.40;;;;;;6305098;22;20705;-80
2022/12/07 06:15:30;;;;;;;24.17;9.73;;;8.80;97.40;;;;;;6302217;22;20642;-80
2022/12/07 06:17:59;;;;;;;27.10;10.93;;;8.80;97.40;;;;;;6307025;22;20173;-79
2022/12/07 06:20:27;;;;;;;25.37;11.13;;;8.80;97.40;;;;;;6303799;22;20250;-80
2022/12/07 06:22:55;;;;;;;27.27;10.03;;;8.90;97.40;;;;;;6307889;22;20195;-79
2022/12/07 06:25:23;;;;;;;24.60;10.77;;;8.90;97.40;;;;;;6305133;22;20184;-80
2022/12/07 06:27:55;;;;;;;27.90;9.00;;;8.90;97.30;;;;;;6303697;22;20173;-81
2022/12/07 06:30:23;;;;;;;23.03;9.73;;;8.90;97.30;;;;;;6307600;22;20154;-79
2022/12/07 06:32:52;;;;;;;27.53;9.97;;;8.90;97.30;;;;;;6302937;22;20542;-80
2022/12/07 06:35:20;;;;;;;27.03;9.77;;;9.00;97.30;;;;;;6305775;22;20169;-80
2022/12/07 06:37:48;;;;;;;26.23;11.00;;;9.00;97.30;;;;;;6304077;22;20207;-80
2022/12/07 06:40:17;;;;;;;21.00;8.93;;;9.00;97.20;;;;;;6299757;22;20710;-80
2022/12/07 06:42:45;;;;;;;22.17;9.30;;;9.00;97.10;;;;;;6300050;22;20230;-81
2022/12/07 06:45:15;;;;;;;24.27;9.07;;;9.00;97.20;;;;;;6300365;22;20177;-81
2022/12/07 06:47:43;;;;;;;22.03;9.17;;;9.00;97.20;;;;;;6297938;22;20621;-79
2022/12/07 06:50:14;;;;;;;28.17;10.80;;;9.00;97.10;;;;;;6303577;22;20191;-81
2022/12/07 06:52:43;;;;;;;22.50;10.07;;;9.00;97.00;;;;;;6303884;22;20227;-80
2022/12/07 06:55:13;;;;;;;23.43;10.60;;;9.10;97.00;;;;;;6299688;22;20629;-81
2022/12/07 06:57:41;;;;;;;20.47;9.30;;;9.10;97.00;;;;;;6299973;22;20180;-80
2022/12/07 07:00:11;;;;;;;24.73;9.93;;;9.10;97.00;;;;;;6301269;22;20200;-80
2022/12/07 07:02:53;;;;;;;26.30;9.20;;;9.10;97.00;;;;;;6302695;22;20237;-81
2022/12/07 07:05:24;;;;;;;21.97;9.87;;;9.10;96.90;;;;;;6300218;22;20165;-81
2022/12/07 07:08:01;;;;;;;19.23;8.77;;;9.20;97.00;;;;;;6300968;22;20161;-79
2022/12/07 07:10:50;;;;;;;20.50;8.80;;;9.20;97.10;;;;;;6303361;22;20197;-80
2022/12/07 07:13:18;;;;;;;19.47;8.53;;;9.20;96.60;;;;;;6300966;22;20173;-80
2022/12/07 07:15:47;;;;;;;20.40;9.30;;;9.20;96.60;;;;;;6306719;22;20181;-77
2022/12/07 07:18:17;;;;;;;21.47;8.80;;;9.20;96.50;;;;;;6304842;22;20177;-78
2022/12/07 07:20:45;;;;;;;19.60;9.03;;;9.20;96.40;;;;;;6308109;22;20189;-81
2022/12/07 07:23:14;;;;;;;18.90;8.87;;;9.20;96.30;;;;;;6307110;22;20169;-82
2022/12/07 07:25:42;;;;;;;23.27;9.53;;;9.20;96.60;;;;;;6307113;22;20177;-80
2022/12/07 07:28:10;;;;;;;19.87;9.17;;;9.20;96.20;;;;;;6302723;22;20173;-79
2022/12/07 07:30:39;;;;;;;20.20;7.83;;;9.10;96.10;;;;;;6307858;22;20188;-80
2022/12/07 07:33:11;;;;;;;20.43;9.20;;;9.20;96.20;;;;;;6302450;22;20173;-81
2022/12/07 07:35:41;;;;;;;18.77;8.03;;;9.20;96.20;;;;;;6304221;22;20177;-80
2022/12/07 07:38:10;;;;;;;21.80;8.20;;;9.10;96.20;;;;;;6303974;22;20166;-80
2022/12/07 07:40:38;;;;;;;19.17;8.60;;;9.10;96.10;;;;;;6305695;22;20258;-80
2022/12/07 07:43:06;;;;;;;20.23;8.57;;;9.00;96.20;;;;;;6304505;22;20177;-80
2022/12/07 07:45:34;;;;;;;19.10;8.53;;;9.00;96.20;;;;;;6305628;22;20181;-81
2022/12/07 07:48:04;;;;;;;17.83;8.53;;;9.00;96.20;;;;;;6304449;22;20173;-80
2022/12/07 07:50:33;;;;;;;16.43;7.57;;;9.00;96.30;;;;;;6306472;22;20222;-81
2022/12/07 07:53:02;;;;;;;16.03;6.97;;;8.90;96.30;;;;;;6306243;22;20162;-81
2022/12/07 07:55:31;;;;;;;15.10;7.77;;;8.90;96.30;;;;;;6302502;22;20201;-80
2022/12/07 07:57:59;;;;;;;19.53;8.43;;;8.90;96.40;;;;;;6306147;22;20161;-80
2022/12/07 08:00:27;;;;;;;14.73;8.20;;;8.90;96.40;;;;;;6307361;22;20204;-83
2022/12/07 08:02:59;;;;;;;17.27;7.93;;;8.90;96.30;;;;;;6302587;22;20165;-80
2022/12/07 08:05:27;;;;;;;15.60;7.77;;;8.90;96.30;;;;;;6306418;22;20153;-79
2022/12/07 08:07:55;;;;;;;19.37;7.73;;;8.90;96.30;;;;;;6303246;22;20192;-80
2022/12/07 08:10:26;;;;;;;15.67;7.40;;;8.90;96.30;;;;;;6306372;22;20173;-81
2022/12/07 08:13:13;;;;;;;18.27;8.60;;;8.90;96.30;;;;;;6303633;22;20414;-81
2022/12/07 08:15:43;;;;;;;16.97;8.00;;;8.90;96.50;;;;;;6308235;22;20188;-81
2022/12/07 08:18:12;;;;;;;14.03;7.60;;;8.90;96.50;;;;;;6301934;22;20617;-82
2022/12/07 08:20:41;;;;;;;16.20;7.43;;;8.90;96.40;;;;;;6305715;22;20207;-80
2022/12/07 08:23:11;;;;;;;17.27;7.80;;;9.00;96.40;;;;;;6309036;22;20177;-84
2022/12/07 08:25:42;;;;;;;13.77;6.97;;;9.00;96.40;;;;;;6305789;22;20503;-82
2022/12/07 08:28:11;;;;;;;16.17;7.97;;;9.00;96.40;;;;;;6301260;22;20164;-83
2022/12/07 08:30:39;;;;;;;17.13;8.20;;;9.00;96.30;;;;;;6311576;22;20169;-81
2022/12/07 08:33:07;;;;;;;18.27;7.97;;;9.00;96.30;;;;;;6305364;22;20565;-80
2022/12/07 08:35:36;;;;;;;15.00;7.47;;;8.90;96.20;;;;;;6310268;22;20181;-82
2022/12/07 08:38:04;;;;;;;15.40;8.20;;;8.90;96.30;;;;;;6308795;22;20386;-83
2022/12/07 08:40:32;;;;;;;13.83;7.23;;;8.90;96.30;;;;;;6304418;22;20169;-81
2022/12/07 08:43:02;;;;;;;16.10;7.87;;;9.00;96.30;;;;;;6306031;22;20274;-80
2022/12/07 08:45:32;;;;;;;17.67;7.80;;;9.00;96.40;;;;;;6308889;22;20222;-81
2022/12/07 08:48:04;;;;;;;17.63;8.30;;;9.00;96.40;;;;;;6307724;22;20180;-79
2022/12/07 08:50:33;;;;;;;15.15;7.43;;;9.00;96.40;;;;;;6306883;22;20353;-81
2022/12/07 08:53:03;;;;;;;16.57;7.30;;;9.00;96.40;;;;;;6304558;22;20854;-78
2022/12/07 08:55:34;;;;;;;14.17;7.10;;;9.00;96.30;;;;;;6307698;22;20258;-80
2022/12/07 08:58:04;;;;;;;14.63;6.90;;;9.00;96.10;;;;;;6308157;22;20177;-79
2022/12/07 09:00:32;;;;;;;13.00;6.20;;;9.00;96.20;;;;;;6305831;22;20158;-82
2022/12/07 09:03:01;;;;;;;17.30;8.07;;;9.00;96.30;;;;;;6304004;22;20193;-82
2022/12/07 09:05:29;;;;;;;16.43;7.67;;;9.10;96.30;;;;;;6306922;22;20173;-81
2022/12/07 09:08:01;;;;;;;17.63;8.37;;;9.10;96.20;;;;;;6306271;22;20173;-81
2022/12/07 09:10:29;;;;;;;16.40;8.13;;;9.10;96.10;;;;;;6305773;22;20465;-82
2022/12/07 09:13:00;;;;;;;18.27;7.60;;;9.10;96.00;;;;;;6311039;22;20169;-80
2022/12/07 09:15:31;;;;;;;18.50;8.03;;;9.10;96.00;;;;;;6254414;22;20169;-82
2022/12/07 09:17:59;;;;;;;18.23;9.50;;;9.10;96.00;;;;;;6306799;22;20403;-81
2022/12/07 09:20:27;;;;;;;17.07;8.07;;;9.10;96.20;;;;;;6307252;22;20224;-81
2022/12/07 09:22:56;;;;;;;17.87;8.33;;;9.10;96.20;;;;;;6304528;22;20217;-80
2022/12/07 09:25:24;;;;;;;17.60;8.53;;;9.10;96.20;;;;;;6305479;22;20557;-82
2022/12/07 09:27:57;;;;;;;17.17;7.03;;;9.10;96.20;;;;;;6303077;22;20247;-81
2022/12/07 09:30:26;;;;;;;17.10;7.83;;;9.20;96.20;;;;;;6306534;22;20583;-79
2022/12/07 09:32:58;;;;;;;18.67;8.03;;;9.20;96.10;;;;;;6220856;22;20173;-82
2022/12/07 09:35:28;;;;;;;14.97;7.43;;;9.10;95.90;;;;;;6303941;22;20170;-81
2022/12/07 09:38:00;;;;;;;15.83;7.20;;;9.20;96.00;;;;;;6301855;22;20177;-80
2022/12/07 09:40:29;;;;;;;17.13;7.90;;;9.30;96.10;;;;;;6306142;22;20157;-80
2022/12/07 09:42:57;;;;;;;14.87;6.93;;;9.40;96.00;;;;;;6306719;22;20235;-81
2022/12/07 09:45:32;;;;;;;17.20;7.57;;;9.40;95.90;;;;;;6307498;22;20248;-80
2022/12/07 09:48:16;;;;;;;14.67;7.30;;;9.40;95.70;;;;;;6304924;22;20161;-79
2022/12/07 09:50:44;;;;;;;16.53;7.37;;;9.40;95.50;;;;;;6303538;22;20211;-81
2022/12/07 09:53:23;;;;;;;19.03;8.73;;;9.40;95.50;;;;;;6306902;22;20169;-80
2022/12/07 09:55:53;;;;;;;21.23;10.27;;;9.30;95.50;;;;;;6305177;22;20193;-79
2022/12/07 09:58:23;;;;;;;19.73;10.50;;;9.40;95.60;;;;;;6306339;22;20175;-80
2022/12/07 10:00:56;;;;;;;16.80;8.70;;;9.40;95.60;;;;;;6304839;22;20180;-80
2022/12/07 10:03:28;;;;;;;18.63;8.50;;;9.50;95.60;;;;;;6307566;22;20294;-81
2022/12/07 10:05:58;;;;;;;21.13;9.13;;;9.50;95.50;;;;;;6307053;22;20154;-81
2022/12/07 10:08:26;;;;;;;25.60;9.87;;;9.50;95.50;;;;;;6306347;22;20535;-81
2022/12/07 10:10:57;;;;;;;20.83;9.23;;;9.60;95.60;;;;;;6305668;22;20177;-80
2022/12/07 10:13:36;;;;;;;20.43;9.30;;;9.60;95.60;;;;;;6305846;22;20582;-80
2022/12/07 10:16:06;;;;;;;21.53;9.10;;;9.70;95.70;;;;;;6306296;22;20183;-79
2022/12/07 10:18:38;;;;;;;22.17;10.43;;;9.70;95.60;;;;;;6304913;22;20474;-78
2022/12/07 10:21:12;;;;;;;18.50;8.77;;;9.70;95.70;;;;;;6305990;22;20209;-80
2022/12/07 10:23:43;;;;;;;17.50;9.10;;;9.70;95.60;;;;;;6306588;22;20274;-80
2022/12/07 10:26:27;;;;;;;28.30;10.70;;;9.80;95.60;;;;;;6305806;22;20594;-80
2022/12/07 10:28:56;;;;;;;19.03;8.27;;;9.80;95.50;;;;;;6304724;22;20157;-79
2022/12/07 10:31:41;;;;;;;14.93;6.97;;;9.80;95.40;;;;;;6305845;22;20203;-78
2022/12/07 10:34:22;;;;;;;19.17;8.47;;;9.90;95.50;;;;;;6306386;22;20538;-78
2022/12/07 10:36:50;;;;;;;17.03;8.17;;;10.00;95.50;;;;;;6307926;22;20157;-80
2022/12/07 10:39:20;;;;;;;16.20;7.10;;;10.10;95.20;;;;;;6306954;22;20173;-79
2022/12/07 10:41:56;;;;;;;15.33;6.73;;;10.10;94.80;;;;;;6307480;22;20227;-80
2022/12/07 10:44:27;;;;;;;15.37;6.83;;;10.10;94.60;;;;;;6305327;22;20590;-78
2022/12/07 10:47:20;;;;;;;16.27;6.60;;;10.10;94.50;;;;;;6305539;22;20548;-79
2022/12/07 10:50:32;;;;;;;18.67;8.00;;;10.00;94.40;;;;;;6305127;22;20164;-79
2022/12/07 10:53:25;;;;;;;16.00;8.07;;;10.00;94.30;;;;;;6306165;22;20169;-80
2022/12/07 10:56:34;;;;;;;14.50;8.20;;;9.90;94.20;;;;;;6306397;22;20197;-79
2022/12/07 10:59:23;;;;;;;15.83;7.37;;;9.90;94.30;;;;;;6306085;22;20169;-79
2022/12/07 11:02:02;;;;;;;17.97;8.30;;;9.90;94.40;;;;;;6307221;22;20245;-80
2022/12/07 11:04:37;;;;;;;19.10;8.80;;;9.90;94.40;;;;;;6305996;22;20161;-81
2022/12/07 11:07:15;;;;;;;21.33;8.23;;;9.80;94.50;;;;;;6307667;22;20160;-79
2022/12/07 11:10:02;;;;;;;18.97;9.33;;;9.80;94.60;;;;;;6305231;22;20161;-80
2022/12/07 11:12:50;;;;;;;19.07;8.23;;;9.90;94.80;;;;;;6307675;22;20150;-80
2022/12/07 11:15:22;;;;;;;20.57;9.07;;;9.90;94.80;;;;;;6307195;22;20161;-80
2022/12/07 11:18:00;;;;;;;16.83;7.37;;;9.90;94.90;;;;;;6306049;22;20157;-81
2022/12/07 11:20:41;;;;;;;16.93;7.97;;;10.00;95.00;;;;;;6305080;22;20157;-79
2022/12/07 11:23:22;;;;;;;15.17;7.70;;;10.00;94.80;;;;;;6307404;22;20177;-80
2022/12/07 11:25:59;;;;;;;19.87;8.20;;;10.00;94.70;;;;;;6307510;22;20215;-79
2022/12/07 11:28:42;;;;;;;15.93;7.47;;;10.00;94.60;;;;;;6306543;22;20161;-80
2022/12/07 11:31:19;;;;;;;18.43;9.43;;;10.00;94.70;;;;;;6304923;22;20153;-80
2022/12/07 11:34:07;;;;;;;17.83;9.00;;;9.90;94.70;;;;;;6297617;22;20687;-79
2022/12/07 11:36:43;;;;;;;17.07;8.60;;;9.90;94.80;;;;;;6222718;22;20181;-81
2022/12/07 11:39:29;;;;;;;18.63;8.67;;;9.90;94.80;;;;;;6304618;22;20157;-80
2022/12/07 11:42:05;;;;;;;23.93;8.90;;;9.90;94.90;;;;;;6307597;22;20161;-80
2022/12/07 11:44:37;;;;;;;17.60;8.33;;;9.90;94.90;;;;;;6307475;22;20153;-79
2022/12/07 11:47:16;;;;;;;19.90;7.93;;;9.80;94.90;;;;;;6305213;22;20157;-80
2022/12/07 11:49:54;;;;;;;22.97;9.57;;;9.80;94.90;;;;;;6306992;22;20227;-80
2022/12/07 11:52:31;;;;;;;18.43;8.27;;;9.80;94.90;;;;;;6307284;22;20168;-80
2022/12/07 11:55:03;;;;;;;25.57;9.80;;;9.80;95.10;;;;;;6304534;22;20265;-80
2022/12/07 11:57:38;;;;;;;23.57;9.40;;;9.90;95.10;;;;;;6306634;22;20195;-80
2022/12/07 12:00:16;;;;;;;20.07;8.93;;;9.90;95.10;;;;;;6306729;22;20161;-78
2022/12/07 12:02:50;;;;;;;26.33;10.23;;;9.80;95.10;;;;;;6303836;22;20951;-78
2022/12/07 12:05:21;;;;;;;25.43;9.40;;;9.80;95.30;;;;;;6307139;22;20167;-78
2022/12/07 12:08:01;;;;;;;21.70;8.60;;;9.80;95.30;;;;;;6306076;22;20523;-80
2022/12/07 12:11:00;;;;;;;20.50;9.17;;;9.80;95.20;;;;;;6306768;22;20257;-80
2022/12/07 12:14:04;;;;;;;21.33;8.60;;;9.80;95.20;;;;;;6305073;22;20586;-80
2022/12/07 12:17:12;;;;;;;18.90;8.60;;;9.80;95.10;;;;;;6297575;22;20571;-79
2022/12/07 12:19:43;;;;;;;19.83;8.90;;;9.70;95.10;;;;;;6306397;22;20157;-80
2022/12/07 12:22:17;;;;;;;16.70;7.80;;;9.80;95.10;;;;;;6303857;22;20594;-79
2022/12/07 12:24:52;;;;;;;19.47;8.73;;;9.80;95.10;;;;;;6304532;22;20215;-78
2022/12/07 12:27:26;;;;;;;23.80;9.23;;;9.80;95.20;;;;;;6305905;22;20161;-78
2022/12/07 12:30:00;;;;;;;21.33;8.83;;;9.80;95.10;;;;;;6305006;22;20165;-78
2022/12/07 12:32:55;;;;;;;18.43;8.33;;;9.80;95.10;;;;;;6304469;22;20165;-78
2022/12/07 12:35:47;;;;;;;19.77;8.23;;;9.80;95.20;;;;;;6295454;22;20177;-80
2022/12/07 12:38:33;;;;;;;20.67;9.10;;;9.80;95.10;;;;;;6303901;22;20169;-79
2022/12/07 12:41:02;;;;;;;25.27;10.57;;;9.80;95.20;;;;;;6305082;22;20716;-79
2022/12/07 12:43:53;;;;;;;21.73;10.33;;;9.80;95.50;;;;;;6304724;22;20275;-78
2022/12/07 12:46:48;;;;;;;21.90;9.33;;;9.80;95.20;;;;;;6306724;22;20165;-79
2022/12/07 12:49:43;;;;;;;24.47;11.23;;;9.80;95.20;;;;;;6307142;22;20154;-76
2022/12/07 12:52:56;;;;;;;30.50;12.00;;;9.80;95.30;;;;;;6305665;22;20184;-78
2022/12/07 12:56:04;;;;;;;24.43;10.03;;;9.90;95.40;;;;;;6291711;22;20625;-79
2022/12/07 12:58:36;;;;;;;23.00;9.47;;;10.00;95.40;;;;;;6308066;22;20191;-78
2022/12/07 13:01:47;;;;;;;24.63;9.33;;;10.10;95.50;;;;;;6307786;22;20583;-79
2022/12/07 13:04:37;;;;;;;19.27;9.80;;;10.10;95.30;;;;;;6307049;22;20181;-79
2022/12/07 13:07:10;;;;;;;22.33;10.33;;;10.20;95.30;;;;;;6307436;22;20211;-79
2022/12/07 13:09:45;;;;;;;19.93;9.43;;;10.20;95.10;;;;;;6307501;22;20164;-78
2022/12/07 13:12:16;;;;;;;18.63;9.93;;;10.20;95.00;;;;;;6307489;22;20157;-78
2022/12/07 13:14:56;;;;;;;20.53;9.93;;;10.20;95.00;;;;;;6306770;22;20150;-79
2022/12/07 13:17:58;;;;;;;22.70;10.07;;;10.20;95.10;;;;;;6307752;22;20214;-78
2022/12/07 13:20:49;;;;;;;23.27;9.80;;;10.20;95.10;;;;;;6307693;22;20172;-79